Forside
METAR-TAF:

METAR-TAF

Lufthavne :

Tiree, Skotland

Breddekreds: 56-30N, længdekreds: 006-53W, højde: 12 m

Aktuelle vejr

Denne rapport blev lavet for 54 minutter siden, kl. 13:20 UTC
Vind 14 kt fra vestnordvest
Temperatur 8°C
Fugtighed 81%
Tryk 1035 hPa
Sigt 10 km eller mere

METAR: EGPU 311320Z AUTO 30014KT 9999 FEW023/// BKN048/// 08/05 Q1035

Tid: 15:14 (14:14 UTC)

Vejrudsigter

Denne rapport blev lavet for 3 timer og 10 minutter siden, kl. 11:04 UTC
Foreløbig gælder fra 31 på 12 UTC til 31 på 18 UTC
Vind 9 kt fra nordnordvest
Sigt 10 km eller mere
Spredte skyer i en højde af 2500 ft
Sandsynlighed 30% :
Midlertidig
fra 31 på 12 UTC til 31 på 18 UTC
Sigt: 6000 m
Brudte skyer i en højde af 1400 ft
regnbyger

TAF: EGPU 311104Z 3112/3118 33009KT 9999 SCT025 PROB30 TEMPO 3112/3118 6000 SHRA BKN014

Vejrobservationer og prognoser fra mere end 4000 lufthavne (METAR og TAF).

De gule og røde prikker repræsenterer de meteorologiske stationer.

Flyt musen over at se navnet på stationen.

Så klik over at se vejr observationer og prognoser.

At skifte det kort: Klik på de grønne knapper med et sort kors for at zoome ind; på den grønne knap med en bindestreg for at zoome ud; eller på de grønne pile for tilstødende kort.


METAR-TAF: